createdAt,value
2023-01-29T00:11:01.124Z,31.49
2023-01-29T03:21:55.241Z,11.98
2023-01-29T03:22:55.500Z,15.51
2023-01-29T03:23:54.622Z,15.35
2023-01-29T03:24:54.549Z,15.63
2023-01-29T03:25:54.530Z,15.28
2023-01-29T03:26:54.538Z,16.20
2023-01-29T03:27:54.764Z,15.94
2023-01-29T03:28:54.544Z,15.20
2023-01-29T03:29:54.517Z,16.02
2023-01-29T03:30:55.305Z,15.66
2023-01-29T03:31:54.545Z,15.05
2023-01-29T03:32:54.476Z,15.72
2023-01-29T03:33:54.455Z,15.77
2023-01-29T03:34:54.461Z,16.53
2023-01-29T03:35:54.471Z,17.25
2023-01-29T03:36:54.515Z,16.27
2023-01-29T03:37:54.488Z,15.83
2023-01-29T03:38:54.531Z,16.57
2023-01-29T03:39:54.487Z,16.61
2023-01-29T03:40:54.506Z,16.53
2023-01-29T03:41:54.397Z,16.90
2023-01-29T03:42:54.537Z,16.98
2023-01-29T03:43:54.447Z,16.94
2023-01-29T03:44:54.527Z,17.04
2023-01-29T03:45:54.688Z,18.09
2023-01-29T03:46:54.582Z,15.95
2023-01-29T03:47:54.695Z,16.45
2023-01-29T03:48:54.733Z,17.30
2023-01-29T03:51:14.946Z,16.78
2023-01-29T03:52:14.986Z,16.18
2023-01-29T03:53:15.973Z,16.17
2023-01-29T03:54:14.720Z,17.48
2023-01-29T03:55:15.035Z,16.00
2023-01-29T03:56:14.867Z,18.13
2023-01-29T03:57:15.141Z,16.65
2023-01-29T03:58:15.989Z,17.07
2023-01-29T03:59:14.991Z,16.18
2023-01-29T04:00:15.443Z,16.02
2023-01-29T04:01:15.410Z,17.08
2023-01-29T04:02:15.493Z,17.45
2023-01-29T04:03:16.346Z,16.76
2023-01-29T04:04:15.585Z,18.08
2023-01-29T04:06:52.081Z,6.35
2023-01-29T04:09:12.579Z,16.33
2023-01-29T04:10:11.901Z,16.60
2023-01-29T04:12:32.222Z,15.61
2023-01-29T04:14:32.151Z,15.51
2023-01-29T04:15:32.357Z,15.78
2023-01-29T04:16:32.360Z,15.66
2023-01-29T04:17:32.231Z,16.82
2023-01-29T04:18:32.642Z,16.90
2023-01-29T04:19:32.249Z,16.33
2023-01-29T04:20:32.205Z,15.28
2023-01-29T04:21:32.615Z,14.91
2023-01-29T04:22:32.332Z,12.79
2023-01-29T04:23:32.511Z,12.09
2023-01-29T04:24:32.229Z,12.06
2023-01-29T04:26:32.364Z,11.18
2023-01-29T04:27:32.593Z,11.98
2023-01-29T04:29:32.287Z,11.30
2023-01-29T04:30:32.346Z,10.54
2023-01-29T04:31:32.417Z,10.69
2023-01-29T04:32:32.590Z,10.00
2023-01-29T04:33:32.320Z,10.25
2023-01-29T04:35:33.046Z,10.28
2023-01-29T04:36:32.759Z,10.45
2023-01-29T04:38:32.551Z,9.46
2023-01-29T04:39:33.307Z,9.26
2023-01-29T04:40:32.766Z,8.64
2023-01-29T04:41:32.902Z,11.26
2023-01-29T04:43:53.420Z,11.74
2023-01-29T04:44:53.268Z,11.85
2023-01-29T04:45:52.874Z,11.37
2023-01-29T04:46:52.824Z,10.30
2023-01-29T04:47:52.889Z,10.84
2023-01-29T04:48:52.863Z,10.32
2023-01-29T04:49:52.878Z,9.83
2023-01-29T04:50:52.804Z,10.34
2023-01-29T04:51:52.819Z,10.05
2023-01-29T04:52:52.777Z,10.32
2023-01-29T04:53:52.801Z,10.80
2023-01-29T04:54:52.776Z,9.99
2023-01-29T04:55:52.794Z,9.05
2023-01-29T04:56:52.793Z,9.55
2023-01-29T04:57:52.796Z,9.65
2023-01-29T04:58:52.751Z,9.06
2023-01-29T04:59:52.773Z,10.59
2023-01-29T05:00:52.721Z,10.22
2023-01-29T05:01:52.778Z,9.10
2023-01-29T05:02:52.778Z,9.02
2023-01-29T05:03:52.724Z,9.18
2023-01-29T05:04:52.706Z,9.18
2023-01-29T05:05:52.780Z,10.70
2023-01-29T06:40:16.963Z,9.01
2023-01-29T06:41:16.458Z,10.48
2023-01-29T07:24:17.549Z,8.12
2023-01-29T07:25:17.381Z,9.26
2023-01-29T07:32:19.556Z,8.81
2023-01-29T07:33:18.066Z,10.53
2023-01-29T07:34:17.867Z,10.16
2023-01-29T07:36:18.113Z,10.25
2023-01-29T07:37:17.722Z,11.12
2023-01-29T07:38:17.757Z,10.12
2023-01-29T07:39:18.265Z,10.27
2023-01-29T07:40:18.135Z,10.45
2023-01-29T07:41:17.910Z,9.79
2023-01-29T07:42:18.071Z,9.42
2023-01-29T07:43:19.536Z,10.50
2023-01-29T07:44:17.742Z,10.71
2023-01-29T07:45:17.760Z,11.34
2023-01-29T07:46:17.680Z,10.93
2023-01-29T07:47:17.876Z,11.19
2023-01-29T07:48:17.939Z,11.30
2023-01-29T07:50:18.013Z,11.14
2023-01-29T07:51:17.842Z,10.82
2023-01-29T07:52:17.888Z,11.36
2023-01-29T07:53:17.958Z,9.86
2023-01-29T07:54:18.035Z,10.68
2023-01-29T07:55:18.161Z,9.93
2023-01-29T07:56:18.069Z,10.70
2023-01-29T07:57:18.486Z,12.18
2023-01-29T07:58:18.313Z,12.05
2023-01-29T07:59:18.275Z,11.03
2023-01-29T08:00:18.656Z,11.81
2023-01-29T08:02:18.284Z,12.55
2023-01-29T08:03:18.446Z,11.82
2023-01-29T08:08:58.503Z,10.59
2023-01-29T08:25:58.322Z,10.76
2023-01-29T08:43:00.368Z,10.90
2023-01-29T08:43:58.105Z,11.08
2023-01-29T08:44:58.052Z,10.72
2023-01-29T08:47:18.624Z,10.36
2023-01-29T08:48:18.533Z,11.76
2023-01-29T08:49:18.002Z,11.65
2023-01-29T08:50:18.070Z,11.87
2023-01-29T08:51:17.797Z,10.79
2023-01-29T08:52:17.705Z,11.09
2023-01-29T08:53:17.759Z,10.92
2023-01-29T08:54:17.711Z,11.75
2023-01-29T08:55:18.136Z,11.46
2023-01-29T08:56:17.854Z,11.45
2023-01-29T08:57:17.670Z,10.14
2023-01-29T08:58:17.840Z,11.82
2023-01-29T08:59:17.641Z,11.47
2023-01-29T09:00:17.917Z,10.54
2023-01-29T09:28:00.679Z,12.24
2023-01-29T09:29:00.269Z,12.24
2023-01-29T09:30:00.589Z,12.96
2023-01-29T09:31:00.360Z,12.82
2023-01-29T09:33:19.866Z,13.37
2023-01-29T09:34:19.853Z,13.02
2023-01-29T09:35:19.808Z,12.04
2023-01-29T09:36:19.884Z,12.43
2023-01-29T09:37:21.060Z,11.55
2023-01-29T09:38:20.033Z,12.30
2023-01-29T09:39:19.779Z,11.96
2023-01-29T09:40:19.691Z,12.65
2023-01-29T09:41:19.705Z,12.17
2023-01-29T09:42:19.734Z,12.95
2023-01-29T09:43:19.691Z,12.98
2023-01-29T09:44:19.715Z,12.54
2023-01-29T09:45:19.766Z,12.59
2023-01-29T09:46:19.719Z,12.86
2023-01-29T09:47:19.683Z,13.29
2023-01-29T09:48:19.658Z,13.89
2023-01-29T09:49:19.667Z,15.30
2023-01-29T09:50:20.403Z,15.44
2023-01-29T09:51:19.663Z,14.90
2023-01-29T09:52:19.613Z,14.96
2023-01-29T09:53:19.679Z,15.64
2023-01-29T09:54:19.667Z,14.46
2023-01-29T09:55:19.600Z,16.04
2023-01-29T09:56:19.589Z,14.87
2023-01-29T09:57:19.681Z,16.89
2023-01-29T09:58:19.611Z,15.48
2023-01-29T09:59:19.609Z,14.81
2023-01-29T10:00:19.621Z,14.16
2023-01-29T10:01:19.807Z,14.32
2023-01-29T10:02:19.779Z,12.97
2023-01-29T10:03:19.682Z,13.78
2023-01-29T10:06:20.038Z,7.53
2023-01-29T10:07:20.117Z,13.67
2023-01-29T10:08:20.070Z,14.67
2023-01-29T10:09:20.682Z,14.28
2023-01-29T10:10:19.841Z,15.44
2023-01-29T10:11:19.682Z,14.23
2023-01-29T10:12:19.815Z,13.20
2023-01-29T10:14:19.686Z,13.55
2023-01-29T10:15:20.805Z,13.91
2023-01-29T10:17:19.787Z,14.33
2023-01-29T10:18:19.768Z,13.70
2023-01-29T10:19:19.623Z,14.48
2023-01-29T10:21:19.686Z,15.67
2023-01-29T10:22:19.772Z,13.77
2023-01-29T10:23:19.753Z,15.03
2023-01-29T10:26:19.780Z,16.00
2023-01-29T10:27:19.628Z,16.09
2023-01-29T10:28:19.624Z,16.03
2023-01-29T10:29:20.297Z,15.59
2023-01-29T10:30:19.925Z,15.65
2023-01-29T10:35:09.377Z,14.95
2023-01-29T10:42:22.568Z,9.79
2023-01-29T10:44:53.655Z,8.37
2023-01-29T10:48:31.691Z,15.95
2023-01-29T10:49:31.831Z,14.70
2023-01-29T10:50:31.897Z,15.29
2023-01-29T10:51:31.628Z,14.97
2023-01-29T10:52:31.617Z,14.87
2023-01-29T10:53:31.576Z,14.75
2023-01-29T10:54:31.524Z,14.04
2023-01-29T10:55:31.541Z,14.99
2023-01-29T10:56:31.598Z,14.47
2023-01-29T10:58:31.511Z,17.46
2023-01-29T11:00:31.525Z,15.41
2023-01-29T11:01:31.484Z,14.18
2023-01-29T11:02:31.484Z,15.93
2023-01-29T11:03:31.566Z,16.15
2023-01-29T11:04:31.474Z,16.90
2023-01-29T11:05:31.539Z,16.53
2023-01-29T11:06:31.506Z,16.51
2023-01-29T11:07:31.552Z,16.44
2023-01-29T11:08:31.646Z,15.28
2023-01-29T11:10:31.562Z,15.44
2023-01-29T11:11:31.591Z,14.70
2023-01-29T11:12:31.675Z,16.08
2023-01-29T11:13:31.653Z,14.40
2023-01-29T13:11:55.521Z,16.24
2023-01-29T13:12:55.452Z,14.52
2023-01-29T13:13:55.618Z,16.21
2023-01-29T13:14:55.423Z,15.13
2023-01-29T13:15:55.538Z,15.22
2023-01-29T13:16:55.449Z,14.86
2023-01-29T13:17:55.429Z,14.21
2023-01-29T13:18:55.474Z,15.18
2023-01-29T13:19:55.393Z,14.77
2023-01-29T13:20:55.496Z,14.80
2023-01-29T13:21:55.387Z,16.57
2023-01-29T13:22:55.388Z,15.48
2023-01-29T13:23:55.469Z,15.75
2023-01-29T13:25:04.524Z,16.01
2023-01-29T13:26:55.338Z,16.33
2023-01-29T13:27:55.396Z,15.06
2023-01-29T13:28:55.405Z,16.77
2023-01-29T13:29:55.474Z,17.66
2023-01-29T13:32:15.212Z,15.65
2023-01-29T13:33:15.844Z,17.61
2023-01-29T13:34:15.174Z,16.36
2023-01-29T13:35:15.947Z,15.68
2023-01-29T13:36:16.238Z,16.99
2023-01-29T13:37:15.191Z,17.31
2023-01-29T13:38:15.187Z,17.34
2023-01-29T13:39:15.352Z,16.49
2023-01-29T13:40:15.544Z,16.34
2023-01-29T13:41:15.280Z,15.67
2023-01-29T13:42:15.273Z,15.12
2023-01-29T13:43:15.290Z,16.27
2023-01-29T13:44:15.303Z,15.82
2023-01-29T13:45:15.767Z,15.89
2023-01-29T13:46:15.358Z,16.10
2023-01-29T13:47:15.409Z,16.85
2023-01-29T13:48:15.533Z,15.88
2023-01-29T13:49:15.544Z,16.58
2023-01-29T13:50:15.672Z,16.99
2023-01-29T13:51:15.684Z,17.13
2023-01-29T13:52:15.689Z,17.77
2023-01-29T13:53:15.693Z,16.81
2023-01-29T13:54:15.800Z,17.37
2023-01-29T14:36:56.157Z,18.96
2023-01-29T14:37:56.063Z,19.95
2023-01-29T14:38:56.195Z,19.84
2023-01-29T14:39:56.041Z,19.94
2023-01-29T14:40:55.968Z,19.78
2023-01-29T14:41:55.924Z,18.92
2023-01-29T14:42:56.067Z,19.53
2023-01-29T14:43:55.953Z,20.13
2023-01-29T14:44:55.900Z,21.29
2023-01-29T14:45:55.905Z,20.82
2023-01-29T14:46:55.880Z,20.36
2023-01-29T14:47:55.865Z,19.49
2023-01-29T14:48:55.904Z,19.84
2023-01-29T14:49:55.888Z,21.62
2023-01-29T14:50:55.843Z,20.13
2023-01-29T14:52:12.101Z,19.42
2023-01-29T14:52:56.337Z,19.65
2023-01-29T14:53:58.899Z,18.93
2023-01-29T14:56:16.823Z,19.40
2023-01-29T14:57:16.343Z,19.86
2023-01-29T14:58:15.852Z,19.54
2023-01-29T14:59:15.936Z,18.44
2023-01-29T15:00:16.040Z,18.61
2023-01-29T15:01:15.995Z,18.24
2023-01-29T15:02:16.129Z,18.61
2023-01-29T15:03:16.734Z,18.47
2023-01-29T15:04:15.832Z,19.01
2023-01-29T15:05:16.239Z,19.86
2023-01-29T15:06:15.834Z,17.38
2023-01-29T15:07:15.837Z,17.67
2023-01-29T15:08:15.776Z,19.32
2023-01-29T15:09:15.799Z,17.84
2023-01-29T15:10:23.481Z,19.93
2023-01-29T15:11:16.769Z,19.73
2023-01-29T15:12:15.773Z,19.34
2023-01-29T15:13:15.778Z,20.83
2023-01-29T15:14:15.837Z,20.26
2023-01-29T15:15:15.916Z,20.66
2023-01-29T15:20:03.010Z,9.99
2023-01-29T15:21:02.301Z,19.47
2023-01-29T15:22:01.197Z,19.42
2023-01-29T15:24:00.766Z,19.99
2023-01-29T15:25:01.571Z,21.24
2023-01-29T15:27:20.422Z,20.93
2023-01-29T15:28:20.314Z,21.31
2023-01-29T15:29:20.399Z,21.03
2023-01-29T15:30:20.647Z,21.23
2023-01-29T15:31:20.628Z,20.40
2023-01-29T15:32:21.019Z,20.51
2023-01-29T15:33:20.542Z,21.74
2023-01-29T15:34:20.615Z,21.78
2023-01-29T15:35:20.867Z,20.64
2023-01-29T15:36:20.665Z,20.83
2023-01-29T15:37:20.704Z,19.63
2023-01-29T15:38:20.743Z,19.93
2023-01-29T15:39:20.750Z,19.99
2023-01-29T15:40:20.832Z,20.34
2023-01-29T15:41:20.811Z,19.90
2023-01-29T15:42:20.825Z,19.89
2023-01-29T15:43:20.891Z,20.04
2023-01-29T15:44:21.032Z,21.06
2023-01-29T15:46:21.098Z,20.52
2023-01-29T15:47:21.142Z,21.13
2023-01-29T15:48:21.213Z,20.77
2023-01-29T15:49:21.250Z,20.22
2023-01-29T15:50:21.332Z,19.75
2023-01-29T15:51:21.341Z,21.01
2023-01-29T15:52:21.410Z,20.06
2023-01-29T15:53:21.552Z,21.17
2023-01-29T15:54:21.502Z,20.96
2023-01-29T15:55:21.538Z,19.20
2023-01-29T15:56:21.578Z,19.29
2023-01-29T15:57:21.616Z,20.89
2023-01-29T15:58:21.554Z,20.93
2023-01-29T15:59:21.589Z,19.67
2023-01-29T16:00:21.596Z,20.45
2023-01-29T16:02:21.633Z,27.71
2023-01-29T16:03:21.591Z,27.33
2023-01-29T16:04:21.669Z,29.10
2023-01-29T16:08:21.767Z,29.14
2023-01-29T16:09:22.299Z,30.74
2023-01-29T16:10:21.657Z,30.59
2023-01-29T16:12:21.657Z,30.53
2023-01-29T16:13:21.639Z,29.57
2023-01-29T16:14:21.741Z,27.30
2023-01-29T16:17:21.574Z,26.46
2023-01-29T16:18:21.607Z,24.54
2023-01-29T16:19:21.613Z,27.29
2023-01-29T16:20:21.584Z,24.69
2023-01-29T16:21:21.607Z,24.39
2023-01-29T16:22:21.582Z,25.24
2023-01-29T16:23:21.598Z,25.75
2023-01-29T16:24:21.589Z,24.78
2023-01-29T16:25:21.564Z,24.46
2023-01-29T16:26:21.554Z,25.72
2023-01-29T16:27:21.596Z,25.03
2023-01-29T16:28:21.617Z,24.44
2023-01-29T16:29:21.510Z,24.99
2023-01-29T16:30:21.562Z,24.95
2023-01-29T16:31:21.758Z,24.10
2023-01-29T16:32:21.743Z,25.33
2023-01-29T16:33:21.725Z,25.87
2023-01-29T16:34:21.841Z,26.03
2023-01-29T16:35:21.860Z,26.37
2023-01-29T16:36:21.877Z,24.11
2023-01-29T16:37:21.858Z,23.22
2023-01-29T16:38:21.866Z,27.01
2023-01-29T16:39:21.896Z,25.31
2023-01-29T16:40:21.888Z,25.49
2023-01-29T16:41:21.878Z,25.67
2023-01-29T16:42:21.871Z,25.48
2023-01-29T16:43:22.812Z,25.05
2023-01-29T16:44:21.873Z,25.09
2023-01-29T16:45:21.872Z,26.50
2023-01-29T16:46:21.895Z,26.12
2023-01-29T16:47:21.940Z,27.21
2023-01-29T16:48:22.010Z,25.96
2023-01-29T16:49:21.895Z,25.46
2023-01-29T16:50:21.907Z,24.92
2023-01-29T16:51:21.917Z,26.15
2023-01-29T16:52:21.917Z,26.45
2023-01-29T16:53:21.937Z,27.49
2023-01-29T16:54:21.867Z,26.40
2023-01-29T16:55:21.976Z,26.28
2023-01-29T16:56:21.989Z,26.08
2023-01-29T16:57:21.963Z,27.75
2023-01-29T16:58:22.004Z,25.93
2023-01-29T16:59:22.011Z,26.08
2023-01-29T17:00:22.080Z,26.61
2023-01-29T17:01:22.033Z,26.19
2023-01-29T17:02:22.053Z,26.12
2023-01-29T17:03:22.121Z,27.90
2023-01-29T17:04:22.133Z,24.94
2023-01-29T17:05:22.115Z,26.97
2023-01-29T17:06:22.318Z,25.40
2023-01-29T17:07:22.245Z,23.83
2023-01-29T17:08:22.242Z,24.53
2023-01-29T17:09:22.279Z,26.35
2023-01-29T17:10:22.298Z,27.29
2023-01-29T17:11:22.359Z,30.93
2023-01-29T17:12:22.503Z,30.10
2023-01-29T17:13:22.475Z,29.16
2023-01-29T17:14:22.586Z,29.94
2023-01-29T17:15:22.520Z,29.16
2023-01-29T17:16:22.656Z,29.19
2023-01-29T17:17:22.635Z,28.23
2023-01-29T17:18:22.686Z,28.68
2023-01-29T17:19:22.734Z,28.22
2023-01-29T17:20:22.770Z,28.17
2023-01-29T17:21:22.878Z,26.58
2023-01-29T17:22:22.866Z,26.37
2023-01-29T17:23:22.882Z,26.19
2023-01-29T17:24:22.901Z,26.77
2023-01-29T17:25:22.849Z,26.69
2023-01-29T17:26:22.984Z,26.86
2023-01-29T17:27:22.881Z,25.87
2023-01-29T17:28:22.913Z,25.66
2023-01-29T17:29:22.926Z,26.12
2023-01-29T17:30:22.963Z,24.79
2023-01-29T17:31:23.083Z,24.56
2023-01-29T17:32:22.997Z,25.29
2023-01-29T17:33:22.952Z,25.48
2023-01-29T17:34:22.956Z,23.75
2023-01-29T17:35:22.970Z,23.90
2023-01-29T17:36:22.918Z,24.28
2023-01-29T17:37:22.919Z,23.74
2023-01-29T17:38:26.334Z,24.97
2023-01-29T17:39:22.936Z,23.88
2023-01-29T17:40:22.989Z,25.16
2023-01-29T17:41:22.903Z,27.39
2023-01-29T17:42:22.915Z,29.41
2023-01-29T17:43:22.921Z,31.77
2023-01-29T17:44:22.921Z,30.68
2023-01-29T17:45:22.931Z,34.37
2023-01-29T17:46:22.962Z,33.01
2023-01-29T17:47:22.903Z,35.76
2023-01-29T17:48:22.954Z,31.35
2023-01-29T17:49:22.850Z,33.11
2023-01-29T17:50:22.860Z,35.35
2023-01-29T17:51:24.880Z,36.00
2023-01-29T17:52:22.875Z,35.55
2023-01-29T17:53:24.828Z,33.67
2023-01-29T17:54:22.844Z,33.02
2023-01-29T17:55:22.867Z,33.68
2023-01-29T17:56:22.886Z,33.64
2023-01-29T17:57:22.803Z,32.69
2023-01-29T17:58:22.933Z,32.61
2023-01-29T17:59:22.845Z,29.94
2023-01-29T18:00:22.859Z,27.38
2023-01-29T18:01:22.834Z,30.01
2023-01-29T18:02:28.684Z,28.76
2023-01-29T18:03:23.778Z,28.93
2023-01-29T18:04:22.885Z,27.88
2023-01-29T18:06:43.159Z,30.26
2023-01-29T18:07:43.248Z,29.12
2023-01-29T18:08:43.171Z,29.75
2023-01-29T18:09:43.609Z,33.36
2023-01-29T18:10:43.011Z,32.71
2023-01-29T18:11:43.023Z,30.54
2023-01-29T18:12:43.072Z,29.34
2023-01-29T18:13:43.152Z,31.34
2023-01-29T18:14:43.027Z,32.53
2023-01-29T18:15:43.062Z,33.56
2023-01-29T18:16:43.057Z,33.68
2023-01-29T18:17:42.951Z,33.67
2023-01-29T18:18:42.961Z,34.10
2023-01-29T18:19:42.993Z,33.80
2023-01-29T18:20:42.886Z,35.48
2023-01-29T18:21:42.896Z,34.51
2023-01-29T18:22:43.039Z,37.46
2023-01-29T18:23:43.004Z,36.52
2023-01-29T18:24:43.140Z,35.48
2023-01-29T18:25:43.590Z,36.42
2023-01-29T18:26:42.933Z,34.71
2023-01-29T18:27:42.933Z,33.05
2023-01-29T18:28:42.863Z,33.03
2023-01-29T18:29:42.855Z,34.34
2023-01-29T18:30:42.905Z,34.13
2023-01-29T18:31:42.993Z,32.97
2023-01-29T18:32:42.830Z,32.55
2023-01-29T18:33:42.834Z,32.56
2023-01-29T18:34:42.836Z,32.53
2023-01-29T18:35:42.842Z,32.73
2023-01-29T18:36:42.789Z,35.93
2023-01-29T18:37:42.864Z,34.96
2023-01-29T18:38:43.030Z,28.22
2023-01-29T18:39:42.962Z,25.84
2023-01-29T18:40:43.116Z,31.90
2023-01-29T18:41:43.095Z,43.65
2023-01-29T18:42:43.092Z,38.12
2023-01-29T18:43:43.149Z,34.92
2023-01-29T18:44:43.125Z,35.12
2023-01-29T18:45:43.242Z,31.22
2023-01-29T18:46:43.360Z,32.08
2023-01-29T18:47:43.328Z,29.74
2023-01-29T18:48:43.416Z,28.42
2023-01-29T18:49:43.442Z,27.87
2023-01-29T18:50:43.542Z,27.95
2023-01-29T18:51:43.569Z,28.73
2023-01-29T18:52:43.577Z,30.64
2023-01-29T18:53:45.352Z,27.76
2023-01-29T18:54:43.612Z,28.06
2023-01-29T18:55:43.668Z,26.19
2023-01-29T18:57:13.570Z,27.00
2023-01-29T18:58:27.466Z,26.18
2023-01-29T19:00:04.612Z,33.83
2023-01-29T19:01:03.703Z,37.71
2023-01-29T19:02:03.725Z,41.23
2023-01-29T19:03:03.883Z,41.83
2023-01-29T19:04:04.128Z,36.62
2023-01-29T19:05:03.772Z,35.48
2023-01-29T19:06:03.956Z,36.77
2023-01-29T19:07:03.659Z,35.29
2023-01-29T19:08:03.692Z,35.06
2023-01-29T19:09:03.688Z,33.17
2023-01-29T19:10:03.645Z,30.81
2023-01-29T19:11:03.709Z,34.49
2023-01-29T19:12:03.575Z,31.25
2023-01-29T19:13:05.751Z,31.68
2023-01-29T19:14:03.585Z,33.64
2023-01-29T19:15:03.574Z,58.93
2023-01-29T19:16:03.650Z,57.02
2023-01-29T19:17:03.669Z,42.37
2023-01-29T19:18:03.511Z,36.61
2023-01-29T19:19:03.578Z,37.30
2023-01-29T19:20:04.579Z,34.81
2023-01-29T19:21:03.569Z,28.51
2023-01-29T19:22:03.649Z,29.77
2023-01-29T19:23:03.565Z,30.76
2023-01-29T19:24:03.493Z,29.42
2023-01-29T19:25:04.536Z,30.09
2023-01-29T19:26:03.511Z,31.03
2023-01-29T19:28:23.963Z,20.29
2023-01-29T19:29:24.287Z,28.72
2023-01-29T19:30:24.566Z,29.27
2023-01-29T19:31:23.914Z,29.97
2023-01-29T19:32:23.987Z,30.82
2023-01-29T19:33:23.768Z,31.25
2023-01-29T19:35:44.565Z,29.61
2023-01-29T19:36:44.336Z,29.98
2023-01-29T19:37:44.413Z,34.29
2023-01-29T19:44:21.786Z,32.55
2023-01-29T19:45:37.179Z,33.80
2023-01-29T19:46:22.210Z,30.99
2023-01-29T19:47:22.471Z,31.97
2023-01-29T19:48:20.994Z,32.65
2023-01-29T19:49:20.968Z,37.61
2023-01-29T19:50:21.078Z,40.46
2023-01-29T19:51:20.968Z,37.92
2023-01-29T19:52:20.962Z,34.80
2023-01-29T19:53:20.955Z,33.03
2023-01-29T19:54:21.089Z,33.32
2023-01-29T19:55:21.270Z,35.05
2023-01-29T19:56:24.019Z,33.80
2023-01-29T20:24:21.428Z,45.02
2023-01-29T20:57:20.445Z,29.65
2023-01-29T21:39:21.848Z,25.31
2023-01-29T22:00:00.550Z,9.96
